createdAt,value
2018-06-22T00:02:21.774Z,55.97
2018-06-22T00:04:48.514Z,58.29
2018-06-22T00:07:16.174Z,57.41
2018-06-22T00:09:44.176Z,57.51
2018-06-22T00:12:11.801Z,57.24
2018-06-22T00:14:38.531Z,57.92
2018-06-22T00:17:05.228Z,57.69
2018-06-22T00:19:31.921Z,57.88
2018-06-22T00:21:58.651Z,58.20
2018-06-22T00:24:25.359Z,57.60
2018-06-22T00:26:52.051Z,57.59
2018-06-22T00:29:19.606Z,57.70
2018-06-22T00:31:46.295Z,56.74
2018-06-22T00:34:13.968Z,57.10
2018-06-22T00:36:40.705Z,57.60
2018-06-22T00:39:08.330Z,57.21
2018-06-22T00:41:35.047Z,57.88
2018-06-22T00:44:02.733Z,57.60
2018-06-22T00:46:30.265Z,57.42
2018-06-22T00:48:57.014Z,57.19
2018-06-22T00:51:23.702Z,55.79
2018-06-22T00:53:56.211Z,57.42
2018-06-22T00:56:22.955Z,56.21
2018-06-22T00:58:49.657Z,56.61
2018-06-22T01:01:16.374Z,56.69
2018-06-22T01:03:43.072Z,55.93
2018-06-22T01:06:09.813Z,57.76
2018-06-22T01:08:36.514Z,57.49
2018-06-22T01:11:03.213Z,56.67
2018-06-22T01:13:30.982Z,57.47
2018-06-22T01:15:57.710Z,56.92
2018-06-22T01:18:24.391Z,57.53
2018-06-22T01:20:51.094Z,55.24
2018-06-22T01:23:17.836Z,57.28
2018-06-22T01:25:44.539Z,57.08
2018-06-22T01:28:11.263Z,57.42
2018-06-22T01:30:37.971Z,57.08
2018-06-22T01:33:04.714Z,57.32
2018-06-22T01:35:31.406Z,56.31
2018-06-22T01:37:58.111Z,57.51
2018-06-22T01:40:24.830Z,56.33
2018-06-22T01:42:51.554Z,57.28
2018-06-22T01:45:18.258Z,56.01
2018-06-22T01:47:44.959Z,56.39
2018-06-22T01:50:11.662Z,54.68
2018-06-22T01:52:39.418Z,55.19
2018-06-22T01:55:06.101Z,56.46
2018-06-22T01:57:32.848Z,56.61
2018-06-22T02:02:25.796Z,56.80
2018-06-22T02:04:52.552Z,57.27
2018-06-22T02:07:19.257Z,55.11
2018-06-22T02:09:46.046Z,55.58
2018-06-22T02:12:12.742Z,55.80
2018-06-22T02:14:39.510Z,55.81
2018-06-22T02:17:06.208Z,56.11
2018-06-22T02:19:32.946Z,55.52
2018-06-22T02:21:59.648Z,55.32
2018-06-22T02:24:26.400Z,56.20
2018-06-22T02:26:53.100Z,56.62
2018-06-22T02:29:19.877Z,56.32
2018-06-22T02:31:46.711Z,55.90
2018-06-22T02:34:13.397Z,54.13
2018-06-22T02:36:40.143Z,55.07
2018-06-22T02:39:07.758Z,55.05
2018-06-22T02:41:34.483Z,55.85
2018-06-22T02:44:01.731Z,55.69
2018-06-22T02:46:28.450Z,55.79
2018-06-22T02:48:55.208Z,55.51
2018-06-22T02:51:21.953Z,55.27
2018-06-22T02:53:48.686Z,55.82
2018-06-22T02:56:15.381Z,54.88
2018-06-22T02:58:42.109Z,55.90
2018-06-22T03:01:08.911Z,55.50
2018-06-22T03:03:35.627Z,54.92
2018-06-22T03:06:02.328Z,55.77
2018-06-22T03:08:29.040Z,53.84
2018-06-22T03:10:55.739Z,54.48
2018-06-22T03:13:22.473Z,54.84
2018-06-22T03:15:49.302Z,54.47
2018-06-22T03:18:16.062Z,54.31
2018-06-22T03:20:42.801Z,55.31
2018-06-22T03:23:09.529Z,55.05
2018-06-22T03:25:36.250Z,55.27
2018-06-22T03:28:02.942Z,55.01
2018-06-22T03:30:29.638Z,54.30
2018-06-22T03:32:56.353Z,54.45
2018-06-22T03:35:23.109Z,54.95
2018-06-22T03:37:49.821Z,54.33
2018-06-22T03:40:16.570Z,55.40
2018-06-22T03:42:43.399Z,54.94
2018-06-22T03:45:10.190Z,55.98
2018-06-22T03:47:36.894Z,55.22
2018-06-22T03:50:03.630Z,55.24
2018-06-22T03:52:30.324Z,54.89
2018-06-22T03:54:57.019Z,54.26
2018-06-22T03:57:23.719Z,55.36
2018-06-22T03:59:50.487Z,54.68
2018-06-22T04:02:17.238Z,55.59
2018-06-22T04:04:43.945Z,54.54
2018-06-22T04:07:10.816Z,55.39
2018-06-22T04:09:37.514Z,55.44
2018-06-22T04:12:04.207Z,54.70
2018-06-22T04:14:30.915Z,54.17
2018-06-22T04:16:57.686Z,55.28
2018-06-22T04:19:24.394Z,54.22
2018-06-22T04:21:51.076Z,53.65
2018-06-22T04:24:18.373Z,54.00
2018-06-22T04:26:45.559Z,53.80
2018-06-22T04:29:12.801Z,54.58
2018-06-22T04:31:39.536Z,54.87
2018-06-22T04:34:06.284Z,54.92
2018-06-22T04:36:33.015Z,55.64
2018-06-22T04:39:00.702Z,56.40
2018-06-22T04:41:27.447Z,54.03
2018-06-22T04:43:54.122Z,54.75
2018-06-22T04:46:20.854Z,55.15
2018-06-22T04:48:48.047Z,54.17
2018-06-22T04:51:14.750Z,55.33
2018-06-22T04:53:41.594Z,55.53
2018-06-22T04:56:08.342Z,54.45
2018-06-22T04:58:35.043Z,54.29
2018-06-22T05:01:01.922Z,55.36
2018-06-22T05:03:28.668Z,54.45
2018-06-22T05:05:55.345Z,54.44
2018-06-22T05:08:22.049Z,54.10
2018-06-22T05:10:48.758Z,54.30
2018-06-22T05:13:15.485Z,54.40
2018-06-22T05:15:42.194Z,54.59
2018-06-22T05:18:09.793Z,55.66
2018-06-22T05:20:36.477Z,54.38
2018-06-22T05:23:03.167Z,54.33
2018-06-22T05:25:29.890Z,54.84
2018-06-22T05:27:56.588Z,54.21
2018-06-22T05:30:23.315Z,54.61
2018-06-22T05:32:50.029Z,55.29
2018-06-22T05:35:16.710Z,54.73
2018-06-22T05:37:44.402Z,54.57
2018-06-22T05:40:11.088Z,53.48
2018-06-22T05:42:37.907Z,53.75
2018-06-22T05:45:04.609Z,54.14
2018-06-22T05:47:31.334Z,54.77
2018-06-22T05:49:57.993Z,55.54
2018-06-22T05:52:24.667Z,55.71
2018-06-22T05:54:51.361Z,55.18
2018-06-22T05:57:18.050Z,54.39
2018-06-22T05:59:44.736Z,54.48
2018-06-22T06:02:11.453Z,53.55
2018-06-22T06:04:38.126Z,54.93
2018-06-22T06:07:04.810Z,54.89
2018-06-22T06:09:31.499Z,54.98
2018-06-22T06:11:58.187Z,54.07
2018-06-22T06:14:24.910Z,54.69
2018-06-22T06:16:51.594Z,54.76
2018-06-22T06:19:18.392Z,54.56
2018-06-22T06:21:45.103Z,54.69
2018-06-22T06:24:11.790Z,53.96
2018-06-22T06:26:38.482Z,53.55
2018-06-22T06:29:05.199Z,54.71
2018-06-22T06:31:31.962Z,53.97
2018-06-22T06:33:58.715Z,55.28
2018-06-22T06:36:25.420Z,55.51
2018-06-22T06:38:52.098Z,55.59
2018-06-22T06:41:18.814Z,55.34
2018-06-22T06:43:45.519Z,55.07
2018-06-22T06:46:12.197Z,55.61
2018-06-22T06:48:38.920Z,54.95
2018-06-22T06:51:05.592Z,54.25
2018-06-22T06:53:32.272Z,55.02
2018-06-22T06:55:58.999Z,54.16
2018-06-22T06:58:25.707Z,54.64
2018-06-22T07:00:52.406Z,54.67
2018-06-22T07:03:19.281Z,53.92
2018-06-22T07:05:45.974Z,53.85
2018-06-22T07:08:12.676Z,53.98
2018-06-22T07:10:39.362Z,54.65
2018-06-22T07:13:06.038Z,54.55
2018-06-22T07:15:38.419Z,55.73
2018-06-22T07:18:05.085Z,54.74
2018-06-22T07:20:31.807Z,54.76
2018-06-22T07:22:58.486Z,54.54
2018-06-22T07:25:25.209Z,55.97
2018-06-22T07:27:51.873Z,55.11
2018-06-22T07:30:18.570Z,55.55
2018-06-22T07:32:45.358Z,55.12
2018-06-22T07:35:12.064Z,54.61
2018-06-22T07:37:38.806Z,55.55
2018-06-22T07:40:05.527Z,55.53
2018-06-22T07:42:32.653Z,54.78
2018-06-22T07:44:59.508Z,54.12
2018-06-22T07:47:26.233Z,54.00
2018-06-22T07:49:53.018Z,54.90
2018-06-22T07:52:19.806Z,54.01
2018-06-22T07:54:46.549Z,55.40
2018-06-22T07:57:13.398Z,54.61
2018-06-22T07:59:40.085Z,54.57
2018-06-22T08:02:06.799Z,53.71
2018-06-22T08:04:33.491Z,54.14
2018-06-22T08:07:00.210Z,54.16
2018-06-22T08:09:26.907Z,54.93
2018-06-22T08:11:53.712Z,53.83
2018-06-22T08:16:46.614Z,55.63
2018-06-22T08:19:13.417Z,55.18
2018-06-22T08:21:40.367Z,54.48
2018-06-22T08:24:07.154Z,55.35
2018-06-22T08:26:34.136Z,54.84
2018-06-22T08:29:00.854Z,55.38
2018-06-22T08:31:27.601Z,54.30
2018-06-22T08:33:54.379Z,54.72
2018-06-22T08:36:21.254Z,54.55
2018-06-22T08:38:47.916Z,53.50
2018-06-22T08:41:14.622Z,56.17
2018-06-22T08:43:41.303Z,55.21
2018-06-22T08:46:08.165Z,55.37
2018-06-22T08:48:34.884Z,55.33
2018-06-22T08:51:02.642Z,54.48
2018-06-22T08:53:29.316Z,53.98
2018-06-22T08:55:56.253Z,54.73
2018-06-22T08:58:22.942Z,55.18
2018-06-22T09:00:49.692Z,54.91
2018-06-22T09:03:17.313Z,55.11
2018-06-22T09:05:44.038Z,55.84
2018-06-22T09:08:10.816Z,55.76
2018-06-22T09:10:37.487Z,55.77
2018-06-22T09:13:04.283Z,54.77
2018-06-22T09:15:31.233Z,55.03
2018-06-22T09:17:57.941Z,54.70
2018-06-22T09:20:24.631Z,54.64
2018-06-22T09:22:51.418Z,54.57
2018-06-22T09:25:18.167Z,55.89
2018-06-22T09:27:44.876Z,54.61
2018-06-22T09:30:11.566Z,55.50
2018-06-22T09:32:38.294Z,54.85
2018-06-22T09:35:06.726Z,55.40
2018-06-22T09:37:33.486Z,54.99
2018-06-22T09:40:00.183Z,55.10
2018-06-22T09:42:26.910Z,54.94
2018-06-22T09:44:53.623Z,54.17
2018-06-22T09:47:20.302Z,55.23
2018-06-22T09:49:46.993Z,54.79
2018-06-22T09:52:13.689Z,54.33
2018-06-22T09:54:40.471Z,54.27
2018-06-22T09:57:07.170Z,55.17
2018-06-22T09:59:34.001Z,54.03
2018-06-22T10:02:00.695Z,54.73
2018-06-22T10:06:53.588Z,55.03
2018-06-22T10:09:20.376Z,54.56
2018-06-22T10:11:47.203Z,54.91
2018-06-22T10:14:13.974Z,54.32
2018-06-22T10:16:40.784Z,54.30
2018-06-22T10:19:07.540Z,55.58
2018-06-22T10:21:34.240Z,55.26
2018-06-22T10:24:01.675Z,55.65
2018-06-22T10:26:28.442Z,54.33
2018-06-22T10:28:55.223Z,55.29
2018-06-22T10:31:21.994Z,55.81
2018-06-22T10:33:48.788Z,55.82
2018-06-22T10:36:15.485Z,55.00
2018-06-22T10:38:42.419Z,54.76
2018-06-22T10:41:09.138Z,54.68
2018-06-22T10:43:35.827Z,55.02
2018-06-22T10:46:02.661Z,55.45
2018-06-22T10:48:29.331Z,55.54
2018-06-22T10:50:56.123Z,55.69
2018-06-22T10:53:22.810Z,55.75
2018-06-22T10:55:49.566Z,55.69
2018-06-22T10:58:16.353Z,54.86
2018-06-22T11:00:43.082Z,55.34
2018-06-22T11:03:09.805Z,55.87
2018-06-22T11:05:36.569Z,55.49
2018-06-22T11:08:03.262Z,54.29
2018-06-22T11:10:29.959Z,54.70
2018-06-22T11:12:56.646Z,54.27
2018-06-22T11:15:23.387Z,55.31
2018-06-22T11:17:50.084Z,53.11
2018-06-22T11:20:16.770Z,51.17
2018-06-22T11:22:43.502Z,52.17
2018-06-22T11:25:10.281Z,53.02
2018-06-22T11:27:36.959Z,52.91
2018-06-22T11:30:04.096Z,51.85
2018-06-22T11:32:30.792Z,50.95
2018-06-22T11:34:57.529Z,53.36
2018-06-22T11:37:24.209Z,53.48
2018-06-22T11:39:50.934Z,53.89
2018-06-22T11:42:17.633Z,53.06
2018-06-22T11:44:44.387Z,54.07
2018-06-22T11:47:11.063Z,53.26
2018-06-22T11:49:37.755Z,54.80
2018-06-22T11:52:04.454Z,54.08
2018-06-22T11:54:31.186Z,54.48
2018-06-22T11:56:58.266Z,53.26
2018-06-22T11:59:25.030Z,55.08
2018-06-22T12:01:51.735Z,54.45
2018-06-22T12:04:18.421Z,54.45
2018-06-22T12:06:45.114Z,55.16
2018-06-22T12:09:12.837Z,55.23
2018-06-22T12:11:40.056Z,54.49
2018-06-22T12:14:06.735Z,54.55
2018-06-22T12:16:33.426Z,54.46
2018-06-22T12:19:00.240Z,55.27
2018-06-22T12:21:27.012Z,55.98
2018-06-22T12:23:53.699Z,56.76
2018-06-22T12:26:20.378Z,56.50
2018-06-22T12:28:47.067Z,56.80
2018-06-22T12:31:13.772Z,56.74
2018-06-22T12:33:40.470Z,57.00
2018-06-22T12:36:07.325Z,57.63
2018-06-22T12:38:34.067Z,57.50
2018-06-22T12:41:00.761Z,57.55
2018-06-22T12:43:27.425Z,57.08
2018-06-22T12:45:54.215Z,57.33
2018-06-22T12:48:20.902Z,56.72
2018-06-22T12:50:47.586Z,57.16
2018-06-22T12:53:14.315Z,56.96
2018-06-22T12:55:41.000Z,57.44
2018-06-22T12:58:07.738Z,56.21
2018-06-22T13:00:34.477Z,56.70
2018-06-22T13:03:12.598Z,56.37
2018-06-22T13:05:39.460Z,56.05
2018-06-22T13:08:06.153Z,55.91
2018-06-22T13:10:32.834Z,55.92
2018-06-22T13:12:59.506Z,56.16
2018-06-22T13:15:26.202Z,56.27
2018-06-22T13:17:52.878Z,56.00
2018-06-22T13:20:19.589Z,55.77
2018-06-22T13:22:46.310Z,56.66
2018-06-22T13:25:13.012Z,56.81
2018-06-22T13:27:39.733Z,56.32
2018-06-22T13:30:06.422Z,56.02
2018-06-22T13:32:33.130Z,56.30
2018-06-22T13:34:59.834Z,56.92
2018-06-22T13:37:26.650Z,56.45
2018-06-22T13:39:53.351Z,56.88
2018-06-22T13:42:20.053Z,57.17
2018-06-22T13:44:46.747Z,56.99
2018-06-22T13:47:13.443Z,56.43
2018-06-22T13:49:40.125Z,56.80
2018-06-22T13:52:07.081Z,57.32
2018-06-22T13:54:33.786Z,56.50
2018-06-22T13:57:00.539Z,56.75
2018-06-22T13:59:27.185Z,57.03
2018-06-22T14:01:53.902Z,57.46
2018-06-22T14:04:26.307Z,56.60
2018-06-22T14:06:54.353Z,57.33
2018-06-22T14:09:21.097Z,57.48
2018-06-22T14:11:47.830Z,57.41
2018-06-22T14:14:14.588Z,57.38
2018-06-22T14:16:41.496Z,57.40
2018-06-22T14:19:08.566Z,56.90
2018-06-22T14:21:35.714Z,57.33
2018-06-22T14:24:02.466Z,58.27
2018-06-22T14:26:29.140Z,57.38
2018-06-22T14:28:55.867Z,57.78
2018-06-22T14:31:22.559Z,57.96
2018-06-22T14:33:50.090Z,56.90
2018-06-22T14:36:16.780Z,56.70
2018-06-22T14:38:43.571Z,57.56
2018-06-22T14:41:10.333Z,57.38
2018-06-22T14:43:37.044Z,57.21
2018-06-22T14:46:03.928Z,56.74
2018-06-22T14:48:30.630Z,57.29
2018-06-22T14:50:57.350Z,57.25
2018-06-22T14:54:28.255Z,56.90
2018-06-22T14:59:07.608Z,58.16
2018-06-22T15:01:39.944Z,59.66
2018-06-22T15:04:12.250Z,58.15
2018-06-22T15:06:44.708Z,57.99
2018-06-22T15:09:11.533Z,57.24
2018-06-22T15:11:38.266Z,56.28
2018-06-22T15:14:04.996Z,57.61
2018-06-22T15:16:31.743Z,57.82
2018-06-22T15:18:58.428Z,57.45
2018-06-22T15:21:25.121Z,57.38
2018-06-22T15:23:51.819Z,57.63
2018-06-22T15:26:19.329Z,56.99
2018-06-22T15:28:45.998Z,57.38
2018-06-22T15:31:12.692Z,57.86
2018-06-22T15:33:45.156Z,57.34
2018-06-22T15:36:17.575Z,56.95
2018-06-22T15:38:51.056Z,57.38
2018-06-22T15:41:28.752Z,57.46
2018-06-22T15:44:01.192Z,57.80
2018-06-22T15:47:32.803Z,57.25
2018-06-22T15:50:06.781Z,58.90
2018-06-22T15:52:39.268Z,57.69
2018-06-22T15:55:07.187Z,57.15
2018-06-22T15:57:34.293Z,57.01
2018-06-22T16:00:01.108Z,57.30
2018-06-22T16:02:33.430Z,56.53
2018-06-22T16:05:00.178Z,56.61
2018-06-22T16:07:26.877Z,57.19
2018-06-22T16:10:00.265Z,56.38
2018-06-22T16:12:32.870Z,57.57
2018-06-22T16:15:05.265Z,57.28
2018-06-22T16:17:37.630Z,57.61
2018-06-22T16:20:10.031Z,56.77
2018-06-22T16:22:42.408Z,57.90
2018-06-22T16:25:14.803Z,57.42
2018-06-22T16:27:46.356Z,57.88
2018-06-22T16:30:13.146Z,57.22
2018-06-22T16:32:39.866Z,58.04
2018-06-22T16:35:06.920Z,56.81
2018-06-22T16:37:33.781Z,57.56
2018-06-22T16:40:00.513Z,56.69
2018-06-22T16:42:27.238Z,57.85
2018-06-22T16:44:54.012Z,57.26
2018-06-22T16:47:20.830Z,57.86
2018-06-22T16:49:47.571Z,57.61
2018-06-22T16:52:14.282Z,57.00
2018-06-22T16:54:43.191Z,57.04
2018-06-22T16:59:47.868Z,56.72
2018-06-22T17:02:14.566Z,58.25
2018-06-22T17:04:41.262Z,57.24
2018-06-22T17:07:13.594Z,57.76
2018-06-22T17:09:46.872Z,58.39
2018-06-22T17:12:19.303Z,58.21
2018-06-22T17:14:52.775Z,57.97
2018-06-22T17:17:25.322Z,58.82
2018-06-22T17:19:57.422Z,58.23
2018-06-22T17:22:27.485Z,58.66
2018-06-22T17:24:54.800Z,57.90
2018-06-22T17:27:21.586Z,57.72
2018-06-22T17:29:48.306Z,58.74
2018-06-22T17:32:15.075Z,58.24
2018-06-22T17:34:41.795Z,58.50
2018-06-22T17:37:09.073Z,58.85
2018-06-22T17:39:35.749Z,58.18
2018-06-22T17:42:02.448Z,58.95
2018-06-22T17:44:29.328Z,58.31
2018-06-22T17:46:56.081Z,58.07
2018-06-22T17:49:22.803Z,58.61
2018-06-22T17:51:49.524Z,59.08
2018-06-22T17:54:16.214Z,58.56
2018-06-22T17:56:42.943Z,56.48
2018-06-22T17:59:15.393Z,56.57
2018-06-22T18:01:47.726Z,55.71
2018-06-22T18:05:23.163Z,55.76
2018-06-22T18:07:49.957Z,55.95
2018-06-22T18:10:22.274Z,56.03
2018-06-22T18:12:50.974Z,54.47
2018-06-22T18:15:18.550Z,54.03
2018-06-22T18:17:45.640Z,52.87
2018-06-22T18:20:12.562Z,52.12
2018-06-22T18:22:40.732Z,52.78
2018-06-22T18:25:07.483Z,51.81
2018-06-22T18:27:37.121Z,53.63
2018-06-22T18:30:04.041Z,52.89
2018-06-22T18:32:30.974Z,53.46
2018-06-22T18:34:57.705Z,54.37
2018-06-22T18:37:24.418Z,52.45
2018-06-22T18:39:51.251Z,53.49
2018-06-22T18:42:18.302Z,53.64
2018-06-22T18:44:45.352Z,53.97
2018-06-22T18:47:12.300Z,53.55
2018-06-22T18:49:39.284Z,53.70
2018-06-22T18:52:11.903Z,54.28
2018-06-22T18:54:44.509Z,54.13
2018-06-22T18:57:18.235Z,54.30
2018-06-22T18:59:50.706Z,54.15
2018-06-22T19:03:23.760Z,53.56
2018-06-22T19:05:50.807Z,54.51
2018-06-22T19:08:17.796Z,55.34
2018-06-22T19:10:44.880Z,54.24
2018-06-22T19:13:11.949Z,54.31
2018-06-22T19:15:39.296Z,54.39
2018-06-22T19:18:06.276Z,55.51
2018-06-22T19:20:33.275Z,55.15
2018-06-22T19:23:00.232Z,55.75
2018-06-22T19:25:27.216Z,55.37
2018-06-22T19:27:54.277Z,55.13
2018-06-22T19:30:21.387Z,54.99
2018-06-22T19:32:48.426Z,55.00
2018-06-22T19:35:15.453Z,55.38
2018-06-22T19:37:43.744Z,55.59
2018-06-22T19:40:11.104Z,54.09
2018-06-22T19:42:38.187Z,53.92
2018-06-22T19:45:10.735Z,55.58
2018-06-22T19:47:43.419Z,54.88
2018-06-22T19:50:16.057Z,55.59
2018-06-22T19:52:48.754Z,55.62
2018-06-22T19:55:15.752Z,55.17
2018-06-22T19:57:43.005Z,54.27
2018-06-22T20:00:10.152Z,55.12
2018-06-22T20:02:37.259Z,53.39
2018-06-22T20:05:04.381Z,54.00
2018-06-22T20:07:31.400Z,53.13
2018-06-22T20:09:58.417Z,54.21
2018-06-22T20:12:25.515Z,55.15
2018-06-22T20:14:52.511Z,55.11
2018-06-22T20:17:19.511Z,56.10
2018-06-22T20:19:46.728Z,55.29
2018-06-22T20:22:13.827Z,54.99
2018-06-22T20:24:46.458Z,54.88
2018-06-22T20:27:13.422Z,54.59
2018-06-22T20:29:40.505Z,54.76
2018-06-22T20:32:09.134Z,54.25
2018-06-22T20:36:43.816Z,54.54
2018-06-22T20:39:16.389Z,56.73
2018-06-22T20:41:49.063Z,55.61
2018-06-22T20:44:21.545Z,55.26
2018-06-22T20:46:54.207Z,55.64
2018-06-22T20:49:27.229Z,53.93
2018-06-22T20:51:53.977Z,54.47
2018-06-22T20:54:20.808Z,54.77
2018-06-22T20:56:47.581Z,55.65
2018-06-22T20:59:14.336Z,54.52
2018-06-22T21:01:41.055Z,54.09
2018-06-22T21:04:07.767Z,54.84
2018-06-22T21:06:34.473Z,55.25
2018-06-22T21:09:01.197Z,55.85
2018-06-22T21:11:27.932Z,55.47
2018-06-22T21:13:54.638Z,55.75
2018-06-22T21:16:21.416Z,56.09
2018-06-22T21:18:48.114Z,55.76
2018-06-22T21:22:22.250Z,55.73
2018-06-22T21:24:48.927Z,57.21
2018-06-22T21:27:21.356Z,56.46
2018-06-22T21:29:53.687Z,55.19
2018-06-22T21:32:26.217Z,55.73
2018-06-22T21:34:58.617Z,55.63
2018-06-22T21:39:36.329Z,55.52
2018-06-22T21:42:03.103Z,58.51
2018-06-22T21:44:29.798Z,57.32
2018-06-22T21:46:56.717Z,55.51
2018-06-22T21:49:23.406Z,55.96
2018-06-22T21:51:50.110Z,55.50
2018-06-22T21:54:19.468Z,55.02
2018-06-22T21:56:47.888Z,55.01
2018-06-22T21:59:14.634Z,53.60
2018-06-22T22:01:41.390Z,54.92
2018-06-22T22:04:08.337Z,54.93
2018-06-22T22:06:35.083Z,55.56
2018-06-22T22:09:01.831Z,54.83
2018-06-22T22:11:34.105Z,54.99
2018-06-22T22:14:00.805Z,55.21
2018-06-22T22:16:27.494Z,55.28
2018-06-22T22:18:54.566Z,54.99
2018-06-22T22:21:21.486Z,54.89
2018-06-22T22:23:48.317Z,55.14
2018-06-22T22:26:15.008Z,54.91
2018-06-22T22:28:41.705Z,54.23
2018-06-22T22:31:08.440Z,54.70
2018-06-22T22:33:35.203Z,54.11
2018-06-22T22:36:01.898Z,54.83
2018-06-22T22:38:28.733Z,54.80
2018-06-22T22:40:55.423Z,55.43
2018-06-22T22:43:22.119Z,55.28
2018-06-22T22:45:48.864Z,55.15
2018-06-22T22:48:15.575Z,54.94
2018-06-22T22:50:42.285Z,56.03
2018-06-22T22:53:08.995Z,55.53
2018-06-22T22:55:36.917Z,55.80
2018-06-22T22:58:03.685Z,56.10
2018-06-22T23:00:30.407Z,55.28
2018-06-22T23:02:58.182Z,54.84
2018-06-22T23:05:25.343Z,56.06
2018-06-22T23:07:52.113Z,54.81
2018-06-22T23:10:18.842Z,56.59
2018-06-22T23:12:45.578Z,56.79
2018-06-22T23:15:12.267Z,56.50
2018-06-22T23:17:39.018Z,56.37
2018-06-22T23:20:05.790Z,56.36
2018-06-22T23:22:38.107Z,55.94
2018-06-22T23:25:04.907Z,56.66
2018-06-22T23:27:31.719Z,56.19
2018-06-22T23:29:58.433Z,55.29
2018-06-22T23:32:25.139Z,54.96
2018-06-22T23:34:52.261Z,55.09
2018-06-22T23:37:19.090Z,55.32
2018-06-22T23:39:45.896Z,55.67
2018-06-22T23:42:12.694Z,56.35
2018-06-22T23:44:39.537Z,55.19
2018-06-22T23:47:06.442Z,55.79
2018-06-22T23:49:34.637Z,55.87
2018-06-22T23:52:01.406Z,55.50
2018-06-22T23:54:28.113Z,55.02
2018-06-22T23:56:54.806Z,56.05
2018-06-22T23:59:21.478Z,55.89
